createdAt,value
2022-08-03T00:00:17.572Z,9.80
2022-08-03T00:03:08.967Z,9.40
2022-08-03T00:06:03.713Z,9.30
2022-08-03T00:08:40.051Z,9.90
2022-08-03T00:11:13.030Z,11.40
2022-08-03T00:13:45.589Z,11.30
2022-08-03T00:16:18.330Z,10.50
2022-08-03T00:18:52.343Z,10.90
2022-08-03T00:21:25.087Z,10.70
2022-08-03T00:23:57.600Z,10.70
2022-08-03T00:26:29.954Z,11.00
2022-08-03T00:29:02.558Z,10.00
2022-08-03T00:31:51.438Z,10.90
2022-08-03T00:34:36.736Z,11.20
2022-08-03T00:37:17.599Z,10.70
2022-08-03T00:39:50.096Z,11.10
2022-08-03T00:42:22.387Z,10.50
2022-08-03T00:45:01.904Z,10.80
2022-08-03T00:47:34.209Z,10.60
2022-08-03T00:50:07.354Z,11.80
2022-08-03T00:52:40.173Z,10.70
2022-08-03T00:55:13.029Z,11.50
2022-08-03T00:57:46.368Z,11.30
2022-08-03T01:00:20.909Z,10.60
2022-08-03T01:02:56.006Z,10.90
2022-08-03T01:05:29.014Z,11.00
2022-08-03T01:08:09.677Z,12.30
2022-08-03T01:10:50.519Z,12.70
2022-08-03T01:14:01.243Z,13.10
2022-08-03T01:16:36.866Z,13.60
2022-08-03T01:19:30.915Z,12.70
2022-08-03T01:22:19.363Z,12.50
2022-08-03T01:24:58.439Z,12.20
2022-08-03T01:27:41.884Z,11.90
2022-08-03T01:30:15.235Z,12.10
2022-08-03T01:33:00.969Z,11.60
2022-08-03T01:35:38.526Z,12.20
2022-08-03T01:38:16.474Z,12.20
2022-08-03T01:40:52.258Z,12.00
2022-08-03T01:43:55.092Z,12.00
2022-08-03T01:46:22.264Z,11.50
2022-08-03T01:48:55.303Z,11.50
2022-08-03T01:52:03.702Z,13.20
2022-08-03T01:54:23.103Z,13.00
2022-08-03T01:56:58.237Z,12.10
2022-08-03T01:59:32.365Z,13.50
2022-08-03T02:02:28.250Z,12.90
2022-08-03T02:04:59.955Z,12.30
2022-08-03T02:07:33.896Z,14.90
2022-08-03T02:10:10.834Z,14.20
2022-08-03T02:12:46.553Z,13.10
2022-08-03T02:15:21.744Z,13.30
2022-08-03T02:17:56.037Z,15.60
2022-08-03T02:20:30.338Z,15.90
2022-08-03T02:23:02.788Z,15.30
2022-08-03T02:25:36.594Z,13.50
2022-08-03T02:28:12.735Z,13.90
2022-08-03T02:30:51.836Z,14.30
2022-08-03T02:33:29.991Z,14.10
2022-08-03T02:36:03.904Z,14.80
2022-08-03T02:38:38.301Z,13.10
2022-08-03T02:41:15.016Z,13.40
2022-08-03T02:44:05.595Z,14.00
2022-08-03T02:46:42.793Z,13.20
2022-08-03T02:49:49.669Z,13.10
2022-08-03T02:52:17.019Z,14.00
2022-08-03T02:54:50.627Z,13.30
2022-08-03T02:57:24.634Z,13.90
2022-08-03T02:59:58.847Z,14.60
2022-08-03T03:02:31.834Z,15.00
2022-08-03T03:05:53.088Z,15.00
2022-08-03T03:07:58.352Z,15.80
2022-08-03T03:10:30.758Z,15.50
2022-08-03T03:13:04.541Z,16.30
2022-08-03T03:15:40.421Z,16.10
2022-08-03T03:18:15.916Z,17.20
2022-08-03T03:20:53.022Z,15.50
2022-08-03T03:23:27.061Z,15.70
2022-08-03T03:26:02.629Z,16.20
2022-08-03T03:28:37.069Z,15.80
2022-08-03T03:31:11.009Z,16.00
2022-08-03T03:33:43.927Z,15.30
2022-08-03T03:36:16.303Z,15.00
2022-08-03T03:38:48.985Z,14.60
2022-08-03T03:41:22.171Z,14.30
2022-08-03T03:43:54.766Z,14.10
2022-08-03T03:46:27.632Z,15.50
2022-08-03T03:49:00.480Z,14.90
2022-08-03T03:51:34.733Z,15.10
2022-08-03T03:54:07.482Z,15.30
2022-08-03T03:56:40.099Z,14.40
2022-08-03T03:59:12.249Z,15.00
2022-08-03T04:01:45.115Z,15.00
2022-08-03T04:04:34.822Z,14.30
2022-08-03T04:07:24.572Z,14.30
2022-08-03T04:10:15.815Z,13.90
2022-08-03T04:12:50.615Z,13.60
2022-08-03T04:15:25.269Z,13.60
2022-08-03T04:17:59.454Z,13.40
2022-08-03T04:20:37.091Z,13.50
2022-08-03T04:23:13.726Z,14.20
2022-08-03T04:25:50.536Z,14.20
2022-08-03T04:28:31.386Z,13.80
2022-08-03T04:31:04.719Z,17.90
2022-08-03T04:33:40.101Z,14.70
2022-08-03T04:36:15.935Z,15.40
2022-08-03T04:39:02.000Z,15.80
2022-08-03T04:42:04.325Z,15.30
2022-08-03T04:44:30.389Z,16.10
2022-08-03T04:47:03.462Z,15.20
2022-08-03T04:49:37.427Z,14.70
2022-08-03T04:52:11.225Z,15.40
2022-08-03T04:54:48.788Z,15.50
2022-08-03T04:57:25.167Z,16.50
2022-08-03T05:00:02.584Z,17.30
2022-08-03T05:02:35.479Z,17.50
2022-08-03T05:05:08.551Z,15.40
2022-08-03T05:07:43.764Z,17.00
2022-08-03T05:10:17.674Z,17.50
2022-08-03T05:12:52.329Z,16.10
2022-08-03T05:15:24.899Z,16.90
2022-08-03T05:17:57.235Z,16.10
2022-08-03T05:20:29.752Z,16.40
2022-08-03T05:23:03.975Z,15.40
2022-08-03T05:25:36.791Z,15.40
2022-08-03T05:28:09.470Z,16.90
2022-08-03T05:30:41.973Z,15.40
2022-08-03T05:33:14.448Z,14.30
2022-08-03T05:35:57.603Z,14.40
2022-08-03T05:38:36.440Z,13.00
2022-08-03T05:41:21.374Z,14.20
2022-08-03T05:43:57.322Z,14.10
2022-08-03T05:46:29.834Z,14.80
2022-08-03T05:49:02.206Z,15.90
2022-08-03T05:51:34.828Z,14.60
2022-08-03T05:54:07.031Z,14.50
2022-08-03T05:56:41.232Z,15.60
2022-08-03T05:59:37.149Z,14.50
2022-08-03T06:02:06.855Z,13.90
2022-08-03T06:04:39.362Z,13.70
2022-08-03T06:07:11.811Z,14.60
2022-08-03T06:10:35.184Z,14.80
2022-08-03T06:12:36.772Z,14.90
2022-08-03T06:15:11.468Z,14.00
2022-08-03T06:17:51.277Z,13.70
2022-08-03T06:20:27.323Z,13.00
2022-08-03T06:23:01.253Z,12.70
2022-08-03T06:25:33.957Z,12.20
2022-08-03T06:28:09.494Z,12.90
2022-08-03T06:30:44.849Z,13.20
2022-08-03T06:33:17.368Z,12.60
2022-08-03T06:35:49.596Z,13.40
2022-08-03T06:38:22.253Z,14.10
2022-08-03T06:40:54.959Z,13.70
2022-08-03T06:43:27.633Z,12.90
2022-08-03T06:45:59.834Z,13.40
2022-08-03T06:48:32.485Z,14.20
2022-08-03T06:51:04.814Z,13.60
2022-08-03T06:53:39.542Z,13.70
2022-08-03T06:56:11.855Z,15.10
2022-08-03T06:58:44.562Z,13.90
2022-08-03T07:01:18.798Z,13.20
2022-08-03T07:03:52.288Z,12.30
2022-08-03T07:06:24.964Z,9.70
2022-08-03T07:08:59.715Z,11.80
2022-08-03T07:11:32.316Z,12.50
2022-08-03T07:14:04.578Z,10.60
2022-08-03T07:16:36.878Z,10.40
2022-08-03T07:19:09.311Z,10.60
2022-08-03T07:21:41.721Z,9.60
2022-08-03T07:24:14.501Z,9.20
2022-08-03T07:26:47.692Z,9.50
2022-08-03T07:29:20.850Z,9.60
2022-08-03T07:31:53.257Z,8.30
2022-08-03T07:34:25.949Z,7.70
2022-08-03T07:36:59.538Z,6.80
2022-08-03T07:39:31.819Z,7.40
2022-08-03T07:42:04.427Z,7.10
2022-08-03T07:44:36.996Z,7.20
2022-08-03T07:47:09.650Z,7.60
2022-08-03T07:49:54.930Z,6.90
2022-08-03T07:52:44.776Z,6.20
2022-08-03T07:55:17.536Z,5.70
2022-08-03T07:58:00.493Z,6.00
2022-08-03T08:00:33.594Z,6.10
2022-08-03T08:03:06.115Z,5.40
2022-08-03T08:05:39.179Z,5.70
2022-08-03T08:08:11.636Z,5.10
2022-08-03T08:10:58.148Z,4.00
2022-08-03T08:13:31.491Z,4.00
2022-08-03T08:16:03.952Z,3.50
2022-08-03T08:18:36.274Z,4.10
2022-08-03T08:21:08.826Z,3.90
2022-08-03T08:23:44.367Z,4.30
2022-08-03T08:26:22.278Z,3.60
2022-08-03T08:28:54.593Z,3.30
2022-08-03T08:31:26.950Z,2.80
2022-08-03T08:34:04.014Z,2.90
2022-08-03T08:36:37.630Z,3.00
2022-08-03T08:39:10.310Z,2.70
2022-08-03T08:41:45.933Z,2.50
2022-08-03T08:44:19.804Z,2.60
2022-08-03T08:46:55.045Z,2.90
2022-08-03T08:49:29.610Z,2.60
2022-08-03T08:52:04.603Z,2.60
2022-08-03T08:55:00.159Z,2.40
2022-08-03T08:57:42.692Z,2.70
2022-08-03T09:00:17.723Z,2.50
2022-08-03T09:02:50.409Z,2.30
2022-08-03T09:05:36.270Z,2.20
2022-08-03T09:08:15.732Z,2.10
2022-08-03T09:10:48.205Z,2.50
2022-08-03T09:13:20.855Z,2.00
2022-08-03T09:16:12.452Z,2.70
2022-08-03T09:18:46.527Z,2.40
2022-08-03T09:21:34.619Z,2.40
2022-08-03T09:24:20.627Z,2.90
2022-08-03T09:27:01.108Z,2.40
2022-08-03T09:29:36.284Z,2.00
2022-08-03T09:32:08.932Z,2.50
2022-08-03T09:34:41.128Z,1.80
2022-08-03T09:37:18.243Z,2.10
2022-08-03T09:39:50.869Z,2.00
2022-08-03T09:42:24.297Z,2.10
2022-08-03T09:44:58.444Z,2.00
2022-08-03T09:47:36.434Z,2.00
2022-08-03T09:50:10.845Z,2.20
2022-08-03T09:52:49.818Z,2.30
2022-08-03T09:56:36.263Z,2.10
2022-08-03T09:58:17.919Z,1.70
2022-08-03T10:00:58.365Z,1.70
2022-08-03T10:03:32.081Z,2.00
2022-08-03T10:06:19.591Z,2.10
2022-08-03T10:09:08.282Z,2.10
2022-08-03T10:11:42.561Z,2.30
2022-08-03T10:14:19.344Z,2.20
2022-08-03T10:16:52.524Z,1.90
2022-08-03T10:19:25.769Z,2.30
2022-08-03T10:22:02.580Z,2.00
2022-08-03T10:24:38.588Z,1.90
2022-08-03T10:27:12.777Z,2.10
2022-08-03T10:29:56.263Z,2.10
2022-08-03T10:32:33.264Z,2.30
2022-08-03T10:35:19.920Z,2.10
2022-08-03T10:38:00.578Z,2.10
2022-08-03T10:40:52.614Z,2.30
2022-08-03T10:43:31.945Z,2.10
2022-08-03T10:46:06.417Z,2.60
2022-08-03T10:48:39.585Z,2.10
2022-08-03T10:51:12.009Z,2.10
2022-08-03T10:53:54.139Z,2.50
2022-08-03T10:57:13.715Z,2.30
2022-08-03T11:00:06.678Z,2.50
2022-08-03T11:03:06.829Z,2.40
2022-08-03T11:05:42.117Z,2.60
2022-08-03T11:08:35.954Z,2.60
2022-08-03T11:11:28.870Z,2.40
2022-08-03T11:14:04.674Z,2.20
2022-08-03T11:16:39.091Z,2.40
2022-08-03T11:19:12.790Z,2.50
2022-08-03T11:22:01.440Z,2.80
2022-08-03T11:25:53.417Z,2.60
2022-08-03T11:28:28.661Z,2.50
2022-08-03T11:31:53.692Z,2.50
2022-08-03T11:34:25.995Z,2.50
2022-08-03T11:37:29.948Z,2.50
2022-08-03T11:40:06.051Z,2.50
2022-08-03T11:42:48.598Z,2.60
2022-08-03T11:45:20.824Z,2.50
2022-08-03T11:47:58.809Z,3.70
2022-08-03T11:50:39.152Z,2.20
2022-08-03T11:53:17.645Z,2.70
2022-08-03T11:55:51.183Z,2.90
2022-08-03T11:59:16.753Z,2.90
2022-08-03T12:01:22.897Z,2.70
2022-08-03T12:03:55.753Z,2.90
2022-08-03T12:06:28.218Z,2.60
2022-08-03T12:09:00.591Z,3.10
2022-08-03T12:11:32.866Z,2.80
2022-08-03T12:14:48.638Z,2.80
2022-08-03T12:16:57.679Z,2.70
2022-08-03T12:19:44.718Z,2.70
2022-08-03T12:22:18.127Z,2.90
2022-08-03T12:24:51.909Z,2.80
2022-08-03T12:27:29.981Z,3.50
2022-08-03T12:30:03.873Z,3.30
2022-08-03T12:32:36.355Z,3.50
2022-08-03T12:35:10.445Z,3.40
2022-08-03T12:37:49.361Z,3.20
2022-08-03T12:40:29.052Z,3.80
2022-08-03T12:43:03.623Z,3.80
2022-08-03T12:45:36.982Z,3.50
2022-08-03T12:48:13.349Z,2.90
2022-08-03T12:50:46.150Z,3.30
2022-08-03T12:53:32.752Z,3.00
2022-08-03T12:56:07.473Z,3.30
2022-08-03T12:58:39.633Z,3.10
2022-08-03T13:01:13.667Z,3.30
2022-08-03T13:03:52.753Z,3.10
2022-08-03T13:06:26.801Z,3.00
2022-08-03T13:09:09.960Z,3.20
2022-08-03T13:11:57.806Z,2.90
2022-08-03T13:14:34.653Z,3.60
2022-08-03T13:17:08.128Z,2.90
2022-08-03T13:19:41.682Z,3.30
2022-08-03T13:22:19.197Z,3.20
2022-08-03T13:24:56.169Z,3.20
2022-08-03T13:28:04.517Z,3.40
2022-08-03T13:30:30.198Z,3.30
2022-08-03T13:33:03.522Z,3.20
2022-08-03T13:35:36.140Z,3.00
2022-08-03T13:38:08.474Z,3.20
2022-08-03T13:40:41.810Z,3.60
2022-08-03T13:43:14.672Z,3.40
2022-08-03T13:45:52.310Z,3.80
2022-08-03T13:48:36.184Z,3.50
2022-08-03T13:51:11.778Z,3.40
2022-08-03T13:53:54.896Z,3.50
2022-08-03T13:56:27.641Z,3.20
2022-08-03T13:59:00.437Z,3.60
2022-08-03T14:01:54.561Z,3.70
2022-08-03T14:04:28.002Z,5.80
2022-08-03T14:07:00.992Z,4.10
2022-08-03T14:09:33.385Z,3.60
2022-08-03T14:12:08.829Z,3.80
2022-08-03T14:14:41.773Z,3.70
2022-08-03T14:17:16.499Z,3.80
2022-08-03T14:19:52.681Z,3.30
2022-08-03T14:22:29.037Z,3.70
2022-08-03T14:25:04.150Z,3.30
2022-08-03T14:27:37.376Z,3.40
2022-08-03T14:30:11.881Z,3.70
2022-08-03T14:32:44.376Z,3.50
2022-08-03T14:35:16.826Z,3.80
2022-08-03T14:37:49.284Z,3.70
2022-08-03T14:40:22.002Z,3.90
2022-08-03T14:42:54.718Z,3.60
2022-08-03T14:45:27.260Z,3.50
2022-08-03T14:50:33.886Z,3.50
2022-08-03T14:50:53.112Z,4.00
2022-08-03T14:53:26.187Z,4.00
2022-08-03T14:55:58.827Z,3.70
2022-08-03T14:58:31.478Z,3.80
2022-08-03T15:01:03.693Z,3.80
2022-08-03T15:03:56.187Z,3.70
2022-08-03T15:06:28.485Z,4.00
2022-08-03T15:09:21.639Z,3.30
2022-08-03T15:11:52.937Z,3.60
2022-08-03T15:14:28.310Z,4.10
2022-08-03T15:17:05.060Z,3.90
2022-08-03T15:20:03.860Z,3.70
2022-08-03T15:22:34.980Z,4.00
2022-08-03T15:26:04.143Z,3.70
2022-08-03T15:28:02.697Z,3.90
2022-08-03T15:30:38.841Z,3.90
2022-08-03T15:33:11.102Z,3.90
2022-08-03T15:35:43.640Z,4.00
2022-08-03T15:38:16.156Z,3.50
2022-08-03T15:40:48.658Z,3.80
2022-08-03T15:43:20.726Z,3.90
2022-08-03T15:48:45.986Z,3.80
2022-08-03T15:51:18.463Z,3.40
2022-08-03T15:53:50.663Z,4.20
2022-08-03T15:56:23.020Z,4.00
2022-08-03T15:59:11.541Z,4.10
2022-08-03T16:01:46.493Z,3.80
2022-08-03T16:04:19.317Z,3.90
2022-08-03T16:06:51.895Z,4.10
2022-08-03T16:09:43.035Z,3.80
2022-08-03T16:12:16.909Z,3.80
2022-08-03T16:14:53.445Z,4.10
2022-08-03T16:17:26.470Z,3.90
2022-08-03T16:19:59.043Z,3.90
2022-08-03T16:22:32.315Z,4.10
2022-08-03T16:25:05.838Z,4.00
2022-08-03T16:27:56.693Z,4.00
2022-08-03T16:30:33.304Z,3.80
2022-08-03T16:33:05.778Z,4.10
2022-08-03T16:35:38.454Z,4.10
2022-08-03T16:38:14.186Z,4.00
2022-08-03T16:40:52.302Z,4.00
2022-08-03T16:43:25.493Z,3.60
2022-08-03T16:45:57.605Z,3.70
2022-08-03T16:48:30.322Z,4.30
2022-08-03T16:51:03.171Z,5.00
2022-08-03T16:54:05.421Z,4.10
2022-08-03T16:56:28.056Z,4.90
2022-08-03T16:59:01.534Z,4.40
2022-08-03T17:01:37.944Z,3.80
2022-08-03T17:04:12.092Z,4.00
2022-08-03T17:06:46.344Z,4.40
2022-08-03T17:09:20.469Z,4.00
2022-08-03T17:11:53.921Z,3.90
2022-08-03T17:14:28.580Z,4.60
2022-08-03T17:17:04.771Z,4.10
2022-08-03T17:19:47.403Z,4.20
2022-08-03T17:22:29.369Z,3.70
2022-08-03T17:25:07.860Z,3.70
2022-08-03T17:28:49.758Z,3.70
2022-08-03T17:30:55.872Z,3.40
2022-08-03T17:33:35.581Z,4.00
2022-08-03T17:36:09.161Z,3.30
2022-08-03T17:38:44.303Z,3.20
2022-08-03T17:41:19.894Z,3.60
2022-08-03T17:44:16.011Z,3.50
2022-08-03T17:46:46.575Z,3.90
2022-08-03T17:49:24.530Z,3.40
2022-08-03T17:52:02.959Z,4.30
2022-08-03T17:55:50.763Z,4.00
2022-08-03T17:58:01.326Z,3.40
2022-08-03T18:00:51.798Z,3.10
2022-08-03T18:03:29.149Z,3.50
2022-08-03T18:06:11.822Z,3.50
2022-08-03T18:08:56.573Z,3.10
2022-08-03T18:11:35.526Z,4.00
2022-08-03T18:14:16.989Z,3.70
2022-08-03T18:16:57.648Z,3.60
2022-08-03T18:20:03.682Z,3.80
2022-08-03T18:22:30.618Z,4.00
2022-08-03T18:25:07.870Z,4.10
2022-08-03T18:27:45.443Z,4.00
2022-08-03T18:30:18.740Z,3.90
2022-08-03T18:33:00.623Z,4.10
2022-08-03T18:35:53.784Z,3.70
2022-08-03T18:38:29.105Z,3.80
2022-08-03T18:41:02.109Z,3.90
2022-08-03T18:43:47.560Z,7.00
2022-08-03T18:46:38.241Z,5.10
2022-08-03T18:49:23.544Z,5.10
2022-08-03T18:52:04.987Z,4.50
2022-08-03T18:55:03.842Z,4.30
2022-08-03T18:57:50.912Z,4.30
2022-08-03T19:00:34.261Z,4.30
2022-08-03T19:03:22.722Z,5.20
2022-08-03T19:06:05.968Z,3.80
2022-08-03T19:08:48.103Z,4.40
2022-08-03T19:11:28.206Z,4.60
2022-08-03T19:14:04.150Z,4.90
2022-08-03T19:16:39.553Z,4.50
2022-08-03T19:19:14.596Z,4.80
2022-08-03T19:21:48.342Z,5.40
2022-08-03T19:24:23.546Z,6.10
2022-08-03T19:26:59.136Z,5.20
2022-08-03T19:29:59.079Z,5.10
2022-08-03T19:32:30.035Z,5.20
2022-08-03T19:35:04.617Z,5.30
2022-08-03T19:37:47.094Z,5.00
2022-08-03T19:40:19.778Z,5.40
2022-08-03T19:43:00.441Z,5.90
2022-08-03T19:45:52.638Z,5.60
2022-08-03T19:48:34.763Z,5.40
2022-08-03T19:51:12.201Z,5.90
2022-08-03T19:53:48.446Z,6.60
2022-08-03T19:56:24.730Z,7.10
2022-08-03T19:58:59.616Z,7.00
2022-08-03T20:01:31.884Z,6.90
2022-08-03T20:04:23.436Z,10.30
2022-08-03T20:06:58.748Z,8.10
2022-08-03T20:09:32.093Z,7.20
2022-08-03T20:12:04.402Z,7.90
2022-08-03T20:14:37.199Z,7.80
2022-08-03T20:17:09.848Z,8.10
2022-08-03T20:19:43.357Z,7.20
2022-08-03T20:22:17.282Z,7.60
2022-08-03T20:24:53.008Z,7.40
2022-08-03T20:27:30.053Z,7.60
2022-08-03T20:30:06.633Z,7.80
2022-08-03T20:32:41.686Z,7.80
2022-08-03T20:35:15.732Z,6.50
2022-08-03T20:37:48.309Z,7.10
2022-08-03T20:40:20.667Z,8.30
2022-08-03T20:42:53.320Z,6.80
2022-08-03T20:45:59.685Z,8.10
2022-08-03T20:48:21.981Z,7.50
2022-08-03T20:50:56.503Z,7.60
2022-08-03T20:53:59.783Z,7.50
2022-08-03T20:56:22.878Z,7.80
2022-08-03T20:58:58.023Z,7.90
2022-08-03T21:01:36.372Z,8.00
2022-08-03T21:04:11.194Z,7.60
2022-08-03T21:06:53.234Z,7.90
2022-08-03T21:09:33.478Z,7.60
2022-08-03T21:12:31.492Z,7.30
2022-08-03T21:15:07.484Z,7.50
2022-08-03T21:17:48.795Z,7.10
2022-08-03T21:20:23.539Z,7.60
2022-08-03T21:22:57.926Z,7.90
2022-08-03T21:25:32.466Z,8.00
2022-08-03T21:28:07.523Z,8.30
2022-08-03T21:30:40.688Z,8.60
2022-08-03T21:33:13.673Z,9.40
2022-08-03T21:35:48.589Z,8.60
2022-08-03T21:38:20.941Z,8.20
2022-08-03T21:41:03.180Z,7.70
2022-08-03T21:43:35.659Z,7.80
2022-08-03T21:46:08.921Z,7.40
2022-08-03T21:48:44.865Z,7.00
2022-08-03T21:51:21.376Z,6.60
2022-08-03T21:54:02.913Z,6.10
2022-08-03T21:56:41.578Z,6.20
2022-08-03T21:59:20.421Z,6.00
2022-08-03T22:01:58.660Z,5.60
2022-08-03T22:04:50.692Z,5.50
2022-08-03T22:07:26.199Z,5.20
2022-08-03T22:10:00.732Z,5.00
2022-08-03T22:12:34.197Z,4.80
2022-08-03T22:15:09.603Z,5.10
2022-08-03T22:17:55.352Z,5.00
2022-08-03T22:20:29.500Z,5.40
2022-08-03T22:23:06.762Z,4.90
2022-08-03T22:25:41.516Z,4.80
2022-08-03T22:28:15.296Z,5.30
2022-08-03T22:30:50.294Z,5.50
2022-08-03T22:33:22.454Z,5.20
2022-08-03T22:35:59.555Z,4.80
2022-08-03T22:38:34.092Z,5.40
2022-08-03T22:41:06.872Z,5.30
2022-08-03T22:43:40.048Z,5.50
2022-08-03T22:46:18.527Z,6.20
2022-08-03T22:48:51.961Z,5.60
2022-08-03T22:51:24.753Z,5.80
2022-08-03T22:53:57.493Z,6.00
2022-08-03T22:56:29.938Z,6.30
2022-08-03T22:59:02.063Z,5.80
2022-08-03T23:02:01.693Z,5.80
2022-08-03T23:04:51.076Z,6.00
2022-08-03T23:07:32.866Z,5.80
2022-08-03T23:10:09.839Z,6.40
2022-08-03T23:12:45.027Z,5.90
2022-08-03T23:15:18.833Z,5.90
2022-08-03T23:17:58.586Z,6.40
2022-08-03T23:20:31.894Z,6.60
2022-08-03T23:23:06.236Z,7.00
2022-08-03T23:25:42.139Z,7.30
2022-08-03T23:28:17.482Z,7.20
2022-08-03T23:30:53.300Z,8.00
2022-08-03T23:33:26.265Z,8.10
2022-08-03T23:36:27.931Z,9.10
2022-08-03T23:38:58.185Z,7.90
2022-08-03T23:41:32.422Z,8.70
2022-08-03T23:44:06.360Z,8.60
2022-08-03T23:46:40.015Z,8.20
2022-08-03T23:49:12.759Z,8.40
2022-08-03T23:51:53.760Z,8.40
2022-08-03T23:54:41.313Z,8.80
2022-08-03T23:57:26.783Z,8.30
